createdAt,value
2018-05-24T00:00:13.236Z,52.32
2018-05-24T00:01:13.285Z,52.75
2018-05-24T00:02:13.150Z,52.70
2018-05-24T00:03:13.135Z,52.70
2018-05-24T00:04:13.165Z,52.96
2018-05-24T00:05:13.205Z,52.73
2018-05-24T00:06:13.134Z,53.11
2018-05-24T00:07:13.213Z,53.56
2018-05-24T00:08:13.208Z,53.72
2018-05-24T00:09:13.181Z,53.36
2018-05-24T00:10:13.212Z,53.67
2018-05-24T00:11:13.214Z,53.87
2018-05-24T00:12:13.273Z,53.59
2018-05-24T00:13:13.252Z,54.08
2018-05-24T00:14:13.215Z,54.33
2018-05-24T00:15:13.216Z,54.61
2018-05-24T00:16:13.196Z,54.48
2018-05-24T00:17:13.191Z,54.48
2018-05-24T00:18:13.180Z,54.78
2018-05-24T00:19:13.235Z,54.56
2018-05-24T00:20:13.254Z,54.94
2018-05-24T00:21:13.351Z,55.32
2018-05-24T00:22:13.240Z,56.87
2018-05-24T00:23:13.253Z,57.10
2018-05-24T00:24:13.241Z,56.74
2018-05-24T00:25:13.129Z,56.18
2018-05-24T00:26:13.146Z,56.36
2018-05-24T00:27:13.181Z,56.49
2018-05-24T00:28:13.207Z,56.90
2018-05-24T00:29:13.246Z,57.00
2018-05-24T00:30:13.190Z,57.02
2018-05-24T00:31:13.225Z,56.77
2018-05-24T00:32:13.182Z,56.41
2018-05-24T00:33:13.209Z,55.85
2018-05-24T00:34:13.163Z,56.44
2018-05-24T00:35:13.262Z,57.46
2018-05-24T00:36:13.247Z,57.46
2018-05-24T00:37:13.193Z,57.99
2018-05-24T00:38:13.150Z,57.54
2018-05-24T00:39:13.226Z,57.48
2018-05-24T00:40:13.260Z,58.71
2018-05-24T00:41:13.274Z,59.07
2018-05-24T00:42:13.255Z,57.95
2018-05-24T00:43:13.271Z,58.94
2018-05-24T00:44:13.234Z,58.81
2018-05-24T00:45:13.259Z,58.56
2018-05-24T00:46:13.274Z,59.89
2018-05-24T00:47:13.172Z,59.71
2018-05-24T00:48:13.216Z,59.43
2018-05-24T00:49:13.295Z,59.20
2018-05-24T00:50:13.218Z,59.50
2018-05-24T00:51:13.444Z,60.01
2018-05-24T00:52:13.274Z,60.14
2018-05-24T00:53:13.242Z,61.09
2018-05-24T00:54:13.266Z,60.94
2018-05-24T00:55:13.181Z,61.17
2018-05-24T00:56:13.146Z,61.46
2018-05-24T00:57:13.240Z,61.89
2018-05-24T00:58:13.281Z,61.91
2018-05-24T00:59:13.167Z,61.78
2018-05-24T01:00:13.241Z,61.30
2018-05-24T01:01:13.209Z,61.46
2018-05-24T01:02:13.165Z,61.20
2018-05-24T01:03:13.208Z,61.12
2018-05-24T01:04:13.171Z,60.99
2018-05-24T01:05:13.249Z,61.38
2018-05-24T01:06:13.154Z,61.61
2018-05-24T01:07:13.219Z,61.25
2018-05-24T01:08:13.253Z,61.38
2018-05-24T01:09:13.209Z,61.56
2018-05-24T01:10:13.288Z,60.84
2018-05-24T01:11:13.216Z,61.43
2018-05-24T01:12:13.174Z,61.61
2018-05-24T01:13:13.282Z,61.53
2018-05-24T01:14:13.175Z,61.12
2018-05-24T01:15:13.213Z,61.66
2018-05-24T01:16:13.289Z,61.20
2018-05-24T01:17:13.290Z,61.17
2018-05-24T01:18:13.293Z,60.76
2018-05-24T01:19:13.215Z,61.86
2018-05-24T01:20:13.176Z,61.50
2018-05-24T01:21:13.256Z,61.17
2018-05-24T01:22:13.300Z,61.04
2018-05-24T01:23:13.256Z,61.12
2018-05-24T01:24:13.177Z,60.71
2018-05-24T01:25:13.256Z,60.71
2018-05-24T01:26:13.203Z,61.09
2018-05-24T01:27:13.275Z,59.97
2018-05-24T01:28:13.258Z,60.25
2018-05-24T01:29:13.287Z,59.84
2018-05-24T01:30:13.183Z,59.81
2018-05-24T01:31:13.261Z,59.65
2018-05-24T01:32:13.255Z,59.12
2018-05-24T01:33:13.216Z,58.94
2018-05-24T01:34:13.170Z,58.92
2018-05-24T01:35:13.261Z,59.30
2018-05-24T01:36:13.216Z,58.71
2018-05-24T01:37:13.219Z,58.17
2018-05-24T01:38:13.191Z,58.40
2018-05-24T01:39:13.226Z,58.61
2018-05-24T01:40:13.172Z,58.20
2018-05-24T01:41:13.180Z,59.32
2018-05-24T01:42:13.215Z,59.65
2018-05-24T01:43:13.271Z,60.71
2018-05-24T01:44:13.273Z,60.40
2018-05-24T01:45:13.243Z,60.25
2018-05-24T01:46:13.246Z,61.17
2018-05-24T01:47:13.244Z,62.07
2018-05-24T01:48:13.276Z,62.25
2018-05-24T01:49:13.301Z,62.07
2018-05-24T01:50:13.281Z,62.04
2018-05-24T01:51:13.197Z,61.63
2018-05-24T01:52:13.201Z,62.33
2018-05-24T01:53:13.198Z,60.99
2018-05-24T01:54:13.320Z,61.61
2018-05-24T01:55:13.184Z,63.02
2018-05-24T01:56:13.264Z,64.05
2018-05-24T01:57:13.280Z,63.62
2018-05-24T01:58:13.289Z,63.79
2018-05-24T01:59:13.268Z,63.49
2018-05-24T02:00:13.284Z,62.99
2018-05-24T02:01:13.310Z,63.18
2018-05-24T02:02:13.320Z,64.00
2018-05-24T02:03:13.185Z,64.31
2018-05-24T02:04:13.310Z,64.82
2018-05-24T02:05:13.307Z,65.14
2018-05-24T02:06:13.191Z,65.06
2018-05-24T02:07:13.191Z,65.29
2018-05-24T02:08:13.267Z,65.47
2018-05-24T02:09:13.290Z,65.65
2018-05-24T02:10:17.766Z,65.60
2018-05-24T02:11:13.253Z,65.83
2018-05-24T02:12:13.291Z,64.72
2018-05-24T02:13:13.291Z,65.24
2018-05-24T02:14:13.324Z,66.01
2018-05-24T02:15:13.252Z,66.25
2018-05-24T02:16:13.292Z,65.37
2018-05-24T02:17:13.296Z,65.29
2018-05-24T02:18:13.333Z,65.47
2018-05-24T02:19:13.294Z,65.58
2018-05-24T02:20:13.297Z,65.29
2018-05-24T02:21:13.256Z,66.20
2018-05-24T02:22:13.219Z,66.33
2018-05-24T02:23:13.330Z,64.95
2018-05-24T02:24:13.237Z,65.45
2018-05-24T02:25:13.231Z,65.37
2018-05-24T02:26:13.301Z,66.50
2018-05-24T02:27:13.231Z,67.60
2018-05-24T02:28:13.303Z,67.80
2018-05-24T02:29:13.319Z,66.69
2018-05-24T02:30:13.239Z,66.43
2018-05-24T02:31:13.346Z,67.49
2018-05-24T02:32:13.270Z,67.85
2018-05-24T02:33:13.236Z,67.83
2018-05-24T02:34:13.298Z,66.33
2018-05-24T02:35:13.222Z,66.64
2018-05-24T02:36:13.211Z,65.91
2018-05-24T02:37:13.232Z,64.59
2018-05-24T02:38:13.306Z,64.85
2018-05-24T02:39:13.180Z,65.03
2018-05-24T02:40:13.304Z,64.85
2018-05-24T02:41:13.248Z,65.32
2018-05-24T02:42:13.206Z,64.59
2018-05-24T02:43:13.313Z,65.14
2018-05-24T02:44:13.342Z,64.75
2018-05-24T02:45:13.279Z,64.70
2018-05-24T02:46:13.211Z,64.90
2018-05-24T02:47:13.313Z,65.32
2018-05-24T02:48:13.314Z,65.76
2018-05-24T02:49:13.318Z,66.17
2018-05-24T02:50:13.216Z,66.87
2018-05-24T02:51:13.222Z,66.27
2018-05-24T02:52:13.315Z,66.33
2018-05-24T02:53:13.339Z,66.27
2018-05-24T02:54:13.224Z,65.96
2018-05-24T02:55:13.316Z,67.13
2018-05-24T02:56:13.289Z,67.28
2018-05-24T02:57:13.349Z,67.36
2018-05-24T02:58:13.278Z,68.19
2018-05-24T02:59:13.350Z,68.11
2018-05-24T03:00:13.232Z,68.45
2018-05-24T03:01:13.359Z,68.94
2018-05-24T03:02:13.342Z,68.55
2018-05-24T03:03:13.357Z,68.06
2018-05-24T03:04:13.221Z,68.55
2018-05-24T03:05:13.213Z,68.76
2018-05-24T03:06:13.283Z,68.91
2018-05-24T03:07:13.319Z,69.07
2018-05-24T03:08:13.213Z,69.30
2018-05-24T03:09:13.284Z,69.34
2018-05-24T03:10:13.195Z,69.02
2018-05-24T03:11:13.276Z,69.62
2018-05-24T03:12:13.255Z,69.62
2018-05-24T03:13:13.235Z,69.02
2018-05-24T03:14:13.283Z,69.10
2018-05-24T03:15:13.273Z,69.70
2018-05-24T03:16:13.362Z,69.98
2018-05-24T03:17:13.240Z,69.80
2018-05-24T03:18:13.241Z,70.06
2018-05-24T03:19:13.254Z,69.90
2018-05-24T03:20:13.336Z,70.11
2018-05-24T03:21:13.343Z,70.21
2018-05-24T03:22:13.379Z,70.82
2018-05-24T03:23:13.257Z,70.87
2018-05-24T03:24:13.258Z,70.79
2018-05-24T03:25:13.332Z,71.54
2018-05-24T03:26:13.328Z,72.14
2018-05-24T03:27:13.305Z,72.25
2018-05-24T03:28:13.274Z,72.53
2018-05-24T03:29:13.335Z,72.07
2018-05-24T03:30:13.333Z,71.44
2018-05-24T03:31:13.373Z,71.47
2018-05-24T03:32:13.327Z,72.22
2018-05-24T03:33:13.246Z,72.53
2018-05-24T03:34:13.279Z,73.08
2018-05-24T03:35:13.476Z,72.83
2018-05-24T03:36:13.369Z,72.80
2018-05-24T03:37:13.310Z,71.78
2018-05-24T03:38:13.285Z,72.80
2018-05-24T03:39:13.249Z,72.80
2018-05-24T03:40:13.304Z,72.59
2018-05-24T03:41:13.382Z,72.20
2018-05-24T03:42:13.323Z,72.09
2018-05-24T03:43:13.369Z,71.96
2018-05-24T03:44:13.304Z,72.01
2018-05-24T03:45:13.320Z,72.33
2018-05-24T03:46:13.316Z,72.14
2018-05-24T03:47:13.335Z,72.14
2018-05-24T03:48:13.289Z,71.94
2018-05-24T03:49:13.360Z,71.94
2018-05-24T03:50:13.383Z,72.17
2018-05-24T03:51:13.354Z,72.14
2018-05-24T03:52:13.269Z,72.30
2018-05-24T03:53:13.330Z,72.22
2018-05-24T03:54:13.292Z,73.06
2018-05-24T03:55:13.289Z,72.53
2018-05-24T03:56:13.357Z,73.19
2018-05-24T03:57:13.359Z,73.06
2018-05-24T03:58:13.313Z,73.50
2018-05-24T03:59:13.291Z,73.53
2018-05-24T04:00:13.357Z,73.58
2018-05-24T04:01:13.299Z,73.30
2018-05-24T04:02:13.359Z,72.75
2018-05-24T04:03:13.310Z,72.43
2018-05-24T04:04:13.341Z,72.14
2018-05-24T04:05:13.387Z,71.94
2018-05-24T04:06:13.416Z,72.36
2018-05-24T04:07:13.347Z,72.64
2018-05-24T04:08:13.381Z,73.93
2018-05-24T04:09:13.341Z,74.08
2018-05-24T04:10:13.369Z,74.58
2018-05-24T04:11:13.427Z,73.03
2018-05-24T04:12:13.404Z,72.30
2018-05-24T04:13:13.336Z,72.93
2018-05-24T04:14:13.330Z,73.42
2018-05-24T04:15:13.339Z,72.64
2018-05-24T04:16:13.336Z,72.77
2018-05-24T04:17:13.477Z,72.38
2018-05-24T04:18:13.374Z,71.47
2018-05-24T04:19:13.411Z,71.83
2018-05-24T04:20:13.309Z,70.45
2018-05-24T04:21:13.280Z,70.37
2018-05-24T04:22:13.269Z,70.43
2018-05-24T04:23:13.349Z,70.48
2018-05-24T04:24:13.409Z,70.68
2018-05-24T04:25:13.393Z,70.97
2018-05-24T04:26:13.336Z,71.26
2018-05-24T04:27:13.404Z,70.92
2018-05-24T04:28:13.349Z,70.60
2018-05-24T04:29:13.401Z,71.15
2018-05-24T04:30:13.341Z,71.83
2018-05-24T04:31:13.345Z,70.43
2018-05-24T04:32:13.382Z,70.32
2018-05-24T04:33:13.409Z,70.40
2018-05-24T04:34:13.313Z,69.70
2018-05-24T04:35:13.382Z,70.01
2018-05-24T04:36:13.414Z,70.48
2018-05-24T04:37:13.314Z,70.53
2018-05-24T04:38:13.315Z,70.09
2018-05-24T04:39:13.382Z,70.48
2018-05-24T04:40:13.385Z,70.24
2018-05-24T04:41:13.324Z,70.35
2018-05-24T04:42:13.385Z,71.00
2018-05-24T04:43:13.399Z,71.60
2018-05-24T04:44:13.418Z,70.29
2018-05-24T04:45:13.372Z,69.46
2018-05-24T04:46:13.520Z,69.57
2018-05-24T04:47:13.365Z,69.77
2018-05-24T04:48:13.390Z,69.65
2018-05-24T04:49:13.365Z,69.49
2018-05-24T04:50:13.427Z,69.26
2018-05-24T04:51:13.291Z,68.89
2018-05-24T04:52:13.343Z,68.60
2018-05-24T04:53:13.363Z,68.55
2018-05-24T04:54:13.332Z,69.12
2018-05-24T04:55:13.398Z,69.57
2018-05-24T04:56:13.332Z,68.63
2018-05-24T04:57:13.359Z,68.22
2018-05-24T04:58:13.331Z,68.47
2018-05-24T04:59:13.398Z,68.45
2018-05-24T05:00:13.398Z,68.66
2018-05-24T05:01:13.327Z,69.46
2018-05-24T05:02:13.361Z,69.34
2018-05-24T05:03:13.399Z,69.85
2018-05-24T05:04:13.305Z,70.21
2018-05-24T05:05:13.299Z,69.80
2018-05-24T05:07:13.399Z,69.20
2018-05-24T05:08:13.358Z,69.67
2018-05-24T05:09:13.362Z,69.38
2018-05-24T05:10:13.321Z,69.30
2018-05-24T05:11:13.428Z,69.46
2018-05-24T05:12:13.386Z,69.02
2018-05-24T05:13:13.444Z,69.57
2018-05-24T05:14:13.428Z,69.34
2018-05-24T05:15:13.444Z,69.34
2018-05-24T05:16:13.332Z,68.19
2018-05-24T05:17:13.373Z,67.93
2018-05-24T05:18:13.405Z,67.57
2018-05-24T05:19:13.307Z,67.88
2018-05-24T05:20:13.430Z,67.57
2018-05-24T05:21:13.374Z,67.62
2018-05-24T05:22:13.410Z,68.06
2018-05-24T05:23:13.593Z,66.77
2018-05-24T05:24:13.416Z,66.48
2018-05-24T05:25:13.466Z,65.39
2018-05-24T05:26:13.347Z,65.60
2018-05-24T05:27:13.413Z,65.65
2018-05-24T05:28:13.413Z,66.53
2018-05-24T05:29:13.352Z,65.58
2018-05-24T05:30:13.422Z,66.09
2018-05-24T05:31:13.420Z,66.61
2018-05-24T05:32:13.418Z,67.05
2018-05-24T05:33:13.351Z,66.74
2018-05-24T05:34:13.368Z,66.71
2018-05-24T05:35:13.297Z,66.35
2018-05-24T05:36:13.305Z,67.28
2018-05-24T05:37:13.354Z,67.54
2018-05-24T05:38:13.477Z,66.66
2018-05-24T05:39:13.378Z,66.79
2018-05-24T05:40:13.407Z,65.76
2018-05-24T05:41:13.345Z,65.96
2018-05-24T05:42:13.357Z,65.89
2018-05-24T05:43:13.412Z,66.71
2018-05-24T05:44:13.382Z,67.41
2018-05-24T05:45:13.441Z,67.93
2018-05-24T05:46:13.399Z,67.72
2018-05-24T05:47:13.431Z,67.31
2018-05-24T05:48:13.406Z,67.39
2018-05-24T05:49:13.406Z,67.18
2018-05-24T05:50:13.403Z,67.02
2018-05-24T05:51:13.458Z,67.16
2018-05-24T05:52:13.403Z,66.64
2018-05-24T05:53:13.468Z,66.35
2018-05-24T05:54:13.362Z,66.35
2018-05-24T05:55:13.434Z,66.25
2018-05-24T05:56:13.365Z,65.70
2018-05-24T05:57:13.364Z,66.79
2018-05-24T05:58:13.433Z,66.95
2018-05-24T05:59:13.437Z,67.00
2018-05-24T06:00:13.398Z,66.77
2018-05-24T06:01:13.373Z,67.02
2018-05-24T06:02:13.372Z,67.54
2018-05-24T06:03:13.440Z,67.80
2018-05-24T06:04:13.398Z,66.77
2018-05-24T06:05:13.346Z,66.74
2018-05-24T06:06:13.465Z,67.44
2018-05-24T06:07:13.367Z,67.41
2018-05-24T06:08:13.442Z,67.60
2018-05-24T06:09:13.476Z,67.98
2018-05-24T06:10:13.487Z,68.32
2018-05-24T06:11:13.405Z,67.80
2018-05-24T06:12:13.427Z,67.52
2018-05-24T06:13:13.406Z,67.57
2018-05-24T06:14:13.470Z,66.87
2018-05-24T06:15:13.484Z,67.18
2018-05-24T06:16:13.462Z,66.74
2018-05-24T06:17:13.421Z,65.86
2018-05-24T06:18:13.407Z,66.01
2018-05-24T06:19:13.369Z,66.01
2018-05-24T06:20:13.348Z,65.83
2018-05-24T06:21:13.469Z,65.58
2018-05-24T06:22:13.351Z,66.20
2018-05-24T06:23:13.481Z,65.73
2018-05-24T06:24:13.310Z,66.50
2018-05-24T06:25:13.350Z,66.14
2018-05-24T06:26:13.324Z,66.14
2018-05-24T06:27:13.401Z,66.25
2018-05-24T06:28:13.358Z,65.99
2018-05-24T06:29:13.350Z,65.60
2018-05-24T06:30:13.348Z,64.75
2018-05-24T06:31:13.381Z,65.55
2018-05-24T06:32:13.442Z,65.34
2018-05-24T06:33:13.418Z,65.58
2018-05-24T06:34:13.465Z,64.62
2018-05-24T06:35:13.493Z,64.21
2018-05-24T06:36:13.479Z,64.36
2018-05-24T06:37:13.456Z,64.59
2018-05-24T06:38:13.464Z,64.67
2018-05-24T06:39:13.430Z,66.09
2018-05-24T06:40:13.498Z,66.25
2018-05-24T06:41:13.494Z,64.88
2018-05-24T06:42:13.499Z,64.59
2018-05-24T06:43:13.367Z,65.39
2018-05-24T06:44:13.398Z,65.01
2018-05-24T06:45:13.465Z,65.34
2018-05-24T06:46:13.406Z,65.18
2018-05-24T06:47:13.466Z,64.88
2018-05-24T06:48:13.485Z,65.14
2018-05-24T06:49:13.428Z,65.58
2018-05-24T06:50:13.467Z,64.95
2018-05-24T06:51:13.401Z,64.80
2018-05-24T06:52:13.363Z,64.36
2018-05-24T06:53:13.403Z,63.64
2018-05-24T06:54:13.473Z,63.46
2018-05-24T06:55:13.406Z,66.20
2018-05-24T06:56:13.420Z,65.68
2018-05-24T06:57:13.405Z,67.02
2018-05-24T06:58:13.402Z,65.58
2018-05-24T06:59:13.473Z,65.18
2018-05-24T07:00:13.475Z,64.29
2018-05-24T07:01:13.406Z,63.92
2018-05-24T07:02:13.480Z,63.62
2018-05-24T07:03:13.478Z,64.93
2018-05-24T07:04:13.493Z,64.85
2018-05-24T07:05:13.475Z,63.18
2018-05-24T07:06:13.449Z,62.10
2018-05-24T07:07:13.459Z,62.61
2018-05-24T07:08:13.421Z,62.63
2018-05-24T07:09:13.500Z,63.74
2018-05-24T07:10:13.418Z,63.28
2018-05-24T07:11:13.504Z,63.62
2018-05-24T07:12:13.380Z,64.23
2018-05-24T07:13:13.486Z,63.82
2018-05-24T07:14:13.530Z,64.42
2018-05-24T07:15:13.497Z,64.00
2018-05-24T07:16:13.426Z,64.18
2018-05-24T07:17:13.443Z,65.32
2018-05-24T07:18:13.502Z,64.42
2018-05-24T07:19:13.459Z,64.18
2018-05-24T07:20:13.390Z,64.18
2018-05-24T07:21:13.487Z,62.61
2018-05-24T07:22:13.410Z,62.46
2018-05-24T07:23:13.492Z,61.91
2018-05-24T07:24:13.492Z,63.72
2018-05-24T07:25:13.445Z,61.86
2018-05-24T07:26:13.471Z,62.50
2018-05-24T07:27:13.447Z,62.46
2018-05-24T07:28:13.444Z,62.79
2018-05-24T07:29:13.489Z,62.87
2018-05-24T07:30:13.447Z,62.48
2018-05-24T07:31:13.463Z,63.38
2018-05-24T07:32:13.515Z,63.23
2018-05-24T07:33:13.450Z,63.38
2018-05-24T07:35:13.398Z,64.62
2018-05-24T07:36:13.433Z,65.60
2018-05-24T07:37:13.425Z,64.85
2018-05-24T07:38:13.421Z,65.03
2018-05-24T07:39:13.365Z,65.16
2018-05-24T07:40:13.365Z,66.37
2018-05-24T07:41:13.423Z,64.80
2018-05-24T07:42:13.451Z,65.24
2018-05-24T07:43:13.464Z,63.90
2018-05-24T07:44:13.380Z,62.35
2018-05-24T07:45:13.414Z,62.66
2018-05-24T07:46:13.477Z,63.62
2018-05-24T07:47:13.474Z,63.38
2018-05-24T07:48:13.546Z,63.54
2018-05-24T07:49:13.482Z,64.00
2018-05-24T07:50:13.546Z,65.14
2018-05-24T07:51:13.528Z,65.53
2018-05-24T07:52:13.494Z,65.42
2018-05-24T07:53:13.486Z,66.77
2018-05-24T07:54:13.488Z,62.92
2018-05-24T07:55:13.406Z,65.34
2018-05-24T07:56:13.374Z,63.30
2018-05-24T07:57:13.356Z,63.49
2018-05-24T07:58:13.319Z,63.20
2018-05-24T07:59:13.323Z,63.95
2018-05-24T08:00:13.307Z,64.82
2018-05-24T08:01:13.374Z,63.72
2018-05-24T08:02:13.484Z,62.25
2018-05-24T08:03:13.305Z,65.01
2018-05-24T08:04:13.333Z,63.10
2018-05-24T08:05:13.476Z,62.10
2018-05-24T08:06:13.484Z,62.30
2018-05-24T08:07:13.487Z,62.38
2018-05-24T08:08:13.518Z,63.02
2018-05-24T08:09:13.420Z,60.68
2018-05-24T08:10:13.545Z,59.92
2018-05-24T08:11:13.457Z,60.53
2018-05-24T08:12:13.490Z,60.76
2018-05-24T08:13:13.545Z,60.63
2018-05-24T08:14:13.548Z,63.13
2018-05-24T08:15:13.526Z,59.97
2018-05-24T08:16:13.527Z,60.05
2018-05-24T08:17:13.524Z,59.50
2018-05-24T08:18:13.416Z,60.66
2018-05-24T08:19:13.469Z,60.61
2018-05-24T08:20:13.528Z,59.50
2018-05-24T08:21:13.453Z,58.89
2018-05-24T08:22:13.533Z,60.40
2018-05-24T08:23:13.528Z,59.00
2018-05-24T08:24:13.525Z,58.04
2018-05-24T08:25:13.566Z,59.68
2018-05-24T08:26:13.493Z,59.28
2018-05-24T08:27:13.487Z,57.00
2018-05-24T08:28:13.549Z,57.51
2018-05-24T08:29:13.453Z,59.04
2018-05-24T08:30:13.502Z,57.10
2018-05-24T08:31:13.536Z,58.53
2018-05-24T08:32:13.456Z,57.18
2018-05-24T08:33:13.548Z,57.18
2018-05-24T08:34:13.459Z,55.67
2018-05-24T08:35:13.647Z,55.96
2018-05-24T08:36:13.569Z,55.57
2018-05-24T08:37:13.512Z,56.57
2018-05-24T08:38:13.460Z,53.72
2018-05-24T08:39:13.573Z,55.42
2018-05-24T08:40:13.541Z,54.68
2018-05-24T08:41:13.443Z,54.15
2018-05-24T08:42:13.546Z,52.65
2018-05-24T08:43:13.559Z,53.79
2018-05-24T08:44:13.562Z,53.84
2018-05-24T08:45:13.483Z,54.73
2018-05-24T08:46:13.470Z,55.24
2018-05-24T08:47:13.658Z,54.12
2018-05-24T08:48:13.582Z,54.20
2018-05-24T08:49:13.589Z,55.09
2018-05-24T08:50:13.523Z,55.37
2018-05-24T08:51:13.622Z,55.83
2018-05-24T08:52:13.562Z,56.36
2018-05-24T08:53:13.551Z,53.79
2018-05-24T08:54:13.512Z,55.09
2018-05-24T08:55:13.552Z,56.67
2018-05-24T08:56:13.546Z,57.61
2018-05-24T08:57:13.510Z,56.21
2018-05-24T08:58:13.571Z,55.50
2018-05-24T08:59:13.592Z,56.97
2018-05-24T09:00:13.520Z,56.87
2018-05-24T09:01:13.547Z,56.69
2018-05-24T09:02:13.456Z,57.21
2018-05-24T09:03:13.468Z,56.82
2018-05-24T09:04:13.593Z,56.52
2018-05-24T09:05:13.531Z,57.64
2018-05-24T09:06:13.603Z,58.02
2018-05-24T09:07:13.519Z,58.59
2018-05-24T09:08:13.522Z,59.61
2018-05-24T09:09:13.589Z,58.94
2018-05-24T09:10:13.589Z,58.94
2018-05-24T09:11:13.518Z,59.20
2018-05-24T09:12:13.539Z,60.17
2018-05-24T09:13:13.582Z,59.48
2018-05-24T09:14:13.570Z,59.35
2018-05-24T09:15:13.564Z,59.53
2018-05-24T09:16:13.492Z,59.40
2018-05-24T09:17:13.561Z,61.09
2018-05-24T09:18:13.564Z,60.71
2018-05-24T09:19:13.498Z,59.99
2018-05-24T09:20:13.629Z,60.17
2018-05-24T09:21:13.498Z,62.04
2018-05-24T09:22:13.575Z,62.35
2018-05-24T09:23:13.596Z,62.50
2018-05-24T09:24:13.567Z,63.56
2018-05-24T09:25:13.500Z,63.05
2018-05-24T09:26:13.502Z,64.90
2018-05-24T09:27:13.503Z,65.60
2018-05-24T09:28:13.574Z,66.06
2018-05-24T09:29:13.608Z,66.33
2018-05-24T09:30:13.506Z,67.10
2018-05-24T09:31:13.582Z,67.57
2018-05-24T09:32:13.509Z,67.16
2018-05-24T09:33:13.507Z,66.61
2018-05-24T09:34:13.672Z,67.13
2018-05-24T09:35:13.541Z,68.19
2018-05-24T09:36:13.621Z,67.18
2018-05-24T09:37:13.604Z,67.31
2018-05-24T09:38:13.610Z,67.13
2018-05-24T09:39:13.533Z,66.35
2018-05-24T09:40:13.613Z,65.18
2018-05-24T09:41:13.579Z,66.14
2018-05-24T09:42:13.648Z,66.97
2018-05-24T09:43:13.604Z,65.42
2018-05-24T09:44:13.541Z,66.81
2018-05-24T09:45:13.507Z,67.72
2018-05-24T09:46:13.481Z,68.91
2018-05-24T09:47:13.616Z,67.02
2018-05-24T09:48:13.603Z,67.57
2018-05-24T09:49:13.584Z,67.67
2018-05-24T09:50:13.609Z,67.36
2018-05-24T09:51:13.579Z,67.41
2018-05-24T09:52:13.621Z,68.71
2018-05-24T09:53:13.558Z,69.36
2018-05-24T09:54:13.550Z,69.85
2018-05-24T09:55:13.555Z,71.00
2018-05-24T09:56:13.591Z,69.67
2018-05-24T09:57:13.591Z,70.19
2018-05-24T09:58:13.520Z,69.20
2018-05-24T09:59:13.593Z,70.58
2018-05-24T10:00:13.524Z,68.14
2018-05-24T10:01:13.594Z,69.07
2018-05-24T10:02:13.525Z,69.26
2018-05-24T10:03:13.611Z,68.47
2018-05-24T10:04:13.522Z,69.26
2018-05-24T10:05:13.623Z,68.27
2018-05-24T10:06:13.563Z,68.50
2018-05-24T10:07:13.558Z,68.45
2018-05-24T10:08:13.566Z,68.99
2018-05-24T10:09:13.636Z,68.76
2018-05-24T10:10:13.636Z,69.07
2018-05-24T10:11:13.635Z,69.75
2018-05-24T10:12:13.634Z,69.85
2018-05-24T10:13:13.619Z,70.37
2018-05-24T10:14:13.564Z,70.87
2018-05-24T10:15:13.632Z,70.19
2018-05-24T10:16:13.667Z,69.85
2018-05-24T10:17:13.605Z,69.65
2018-05-24T10:18:13.575Z,70.32
2018-05-24T10:19:13.643Z,70.97
2018-05-24T10:20:13.580Z,71.57
2018-05-24T10:21:13.633Z,72.12
2018-05-24T10:22:13.579Z,73.77
2018-05-24T10:23:13.647Z,73.06
2018-05-24T10:24:13.578Z,73.87
2018-05-24T10:25:13.529Z,74.84
2018-05-24T10:26:13.642Z,75.86
2018-05-24T10:27:13.579Z,75.76
2018-05-24T10:28:13.516Z,78.41
2018-05-24T10:29:13.588Z,78.25
2018-05-24T10:30:13.630Z,78.73
2018-05-24T10:31:13.649Z,80.52
2018-05-24T10:32:13.657Z,79.31
2018-05-24T10:33:13.651Z,80.39
2018-05-24T10:34:13.638Z,81.76
2018-05-24T10:35:13.539Z,83.49
2018-05-24T10:36:13.534Z,82.75
2018-05-24T10:37:13.543Z,84.50
2018-05-24T10:38:13.635Z,84.44
2018-05-24T10:39:13.651Z,84.74
2018-05-24T10:40:13.556Z,86.81
2018-05-24T10:41:13.656Z,87.08
2018-05-24T10:42:13.520Z,88.17
2018-05-24T10:43:13.594Z,88.68
2018-05-24T10:44:13.582Z,89.45
2018-05-24T10:45:13.546Z,89.06
2018-05-24T10:46:13.576Z,89.80
2018-05-24T10:47:13.525Z,90.47
2018-05-24T10:48:13.617Z,90.82
2018-05-24T10:49:13.553Z,90.74
2018-05-24T10:50:13.494Z,91.09
2018-05-24T10:51:13.558Z,88.89
2018-05-24T10:52:13.522Z,89.75
2018-05-24T10:53:13.557Z,91.07
2018-05-24T10:54:13.549Z,91.65
2018-05-24T10:55:13.621Z,92.19
2018-05-24T10:56:13.625Z,92.91
2018-05-24T10:57:13.564Z,93.02
2018-05-24T10:58:13.686Z,93.45
2018-05-24T10:59:13.668Z,92.40
2018-05-24T11:00:13.553Z,91.01
2018-05-24T11:01:13.557Z,91.41
2018-05-24T11:02:13.652Z,91.71
2018-05-24T11:03:13.628Z,91.76
2018-05-24T11:04:13.538Z,91.44
2018-05-24T11:05:13.633Z,92.59
2018-05-24T11:06:13.626Z,92.73
2018-05-24T11:07:13.596Z,92.49
2018-05-24T11:08:13.574Z,92.16
2018-05-24T11:09:13.569Z,92.40
2018-05-24T11:10:13.640Z,93.10
2018-05-24T11:11:13.599Z,93.54
2018-05-24T11:12:13.642Z,93.72
2018-05-24T11:13:13.568Z,93.35
2018-05-24T11:14:13.565Z,94.07
2018-05-24T11:15:13.595Z,93.99
2018-05-24T11:16:13.656Z,94.77
2018-05-24T11:17:13.588Z,93.99
2018-05-24T11:18:13.499Z,94.31
2018-05-24T11:19:13.544Z,95.04
2018-05-24T11:20:13.499Z,95.61
2018-05-24T11:21:13.502Z,94.99
2018-05-24T11:22:13.501Z,94.77
2018-05-24T11:23:13.502Z,94.48
2018-05-24T11:24:13.595Z,94.26
2018-05-24T11:25:13.638Z,95.34
2018-05-24T11:26:13.667Z,94.75
2018-05-24T11:27:13.634Z,93.54
2018-05-24T11:28:13.675Z,93.62
2018-05-24T11:29:13.610Z,93.51
2018-05-24T11:30:13.611Z,94.23
2018-05-24T11:31:13.575Z,93.64
2018-05-24T11:32:13.674Z,93.75
2018-05-24T11:33:13.651Z,94.04
2018-05-24T11:34:13.614Z,94.59
2018-05-24T11:35:13.691Z,95.18
2018-05-24T11:36:13.574Z,95.47
2018-05-24T11:37:13.734Z,94.88
2018-05-24T11:38:13.655Z,94.83
2018-05-24T11:39:13.675Z,93.81
2018-05-24T11:40:13.621Z,92.84
2018-05-24T11:41:13.629Z,93.26
2018-05-24T11:42:13.756Z,92.05
2018-05-24T11:43:13.702Z,92.24
2018-05-24T11:44:13.677Z,91.55
2018-05-24T11:45:13.586Z,91.38
2018-05-24T11:46:13.694Z,92.22
2018-05-24T11:47:13.622Z,92.76
2018-05-24T11:48:13.562Z,93.29
2018-05-24T11:49:13.583Z,93.72
2018-05-24T11:50:13.677Z,94.15
2018-05-24T11:51:13.601Z,94.07
2018-05-24T11:52:13.703Z,94.31
2018-05-24T11:53:13.640Z,94.07
2018-05-24T11:54:13.681Z,94.04
2018-05-24T11:55:13.702Z,94.64
2018-05-24T11:56:13.634Z,94.80
2018-05-24T11:57:13.667Z,94.61
2018-05-24T11:58:13.685Z,95.01
2018-05-24T11:59:13.671Z,94.96
2018-05-24T12:00:13.627Z,95.47
2018-05-24T12:01:13.632Z,95.80
2018-05-24T12:02:13.652Z,96.20
2018-05-24T12:03:13.694Z,96.53
2018-05-24T12:04:13.702Z,97.02
2018-05-24T12:05:13.709Z,97.42
2018-05-24T12:06:13.712Z,97.72
2018-05-24T12:07:13.714Z,97.96
2018-05-24T12:08:13.636Z,98.12
2018-05-24T12:09:13.676Z,98.42
2018-05-24T12:10:13.643Z,98.34
2018-05-24T12:11:13.644Z,97.64
2018-05-24T12:12:13.677Z,97.45
2018-05-24T12:13:13.711Z,97.53
2018-05-24T12:14:13.757Z,97.66
2018-05-24T12:15:13.741Z,97.12
2018-05-24T12:16:13.646Z,95.64
2018-05-24T12:17:13.705Z,95.56
2018-05-24T12:18:13.639Z,95.85
2018-05-24T12:19:13.657Z,95.77
2018-05-24T12:20:13.642Z,96.02
2018-05-24T12:21:13.706Z,96.34
2018-05-24T12:22:13.608Z,95.64
2018-05-24T12:23:13.715Z,95.28
2018-05-24T12:24:13.607Z,95.18
2018-05-24T12:25:13.701Z,95.88
2018-05-24T12:26:13.686Z,96.28
2018-05-24T12:27:13.607Z,95.28
2018-05-24T12:28:13.657Z,95.39
2018-05-24T12:29:13.684Z,95.26
2018-05-24T12:30:13.673Z,95.64
2018-05-24T12:31:13.614Z,96.02
2018-05-24T12:32:13.717Z,96.53
2018-05-24T12:33:13.725Z,95.88
2018-05-24T12:34:13.714Z,94.86
2018-05-24T12:35:13.834Z,94.77
2018-05-24T12:36:13.669Z,93.21
2018-05-24T12:37:13.619Z,92.73
2018-05-24T12:38:13.717Z,92.99
2018-05-24T12:39:13.617Z,92.35
2018-05-24T12:40:13.734Z,92.05
2018-05-24T12:41:13.599Z,92.30
2018-05-24T12:42:13.616Z,92.30
2018-05-24T12:43:13.701Z,91.20
2018-05-24T12:44:13.602Z,91.38
2018-05-24T12:45:13.700Z,91.84
2018-05-24T12:46:13.599Z,91.97
2018-05-24T12:47:13.646Z,92.05
2018-05-24T12:48:13.645Z,92.05
2018-05-24T12:49:13.558Z,92.95
2018-05-24T12:50:13.602Z,92.89
2018-05-24T12:51:13.649Z,92.59
2018-05-24T12:52:13.652Z,92.14
2018-05-24T12:53:13.610Z,93.37
2018-05-24T12:54:13.561Z,93.45